Kasane, Botswana

7:21 AM CAT on August 29, 2014 (GMT +0200)
Kasane | Change Station
CLOSE
Current Station
Airport
Location: Kasane,
Elevation: 3281 ft
Nearby Weather Stations

Elev 3281 ft 17.83 °S, 25.16 °E | Updated 21 minutes ago

Clear
Clear
61 °F
Feels Like 61 °F
N
13
Wind Variable Wind from South

Today
High -- | Low -- °F
--% Chance of Precip.
Yesterday
High -- | Low -- °F
Precip. -- in
6:29 AM 6:11 PM
Waxing Crescent, 12% visible
Pressure 30.09 in
Visibility -9999.0 miles
Clouds
Dew Point 19 °F
Humidity 20%
Rainfall 0.00 in
Snow Depth Not available.
UV Not available.
Pollen Not available.
Air Quality Not available.
Flu Activity Not available.
METAR FBKE 290500Z 19011KT CAVOK 16/M07 Q1019

More Conditions Fewer Conditions

Pressure 30.09 in
Visibility -9999.0 miles
Clouds
Dew Point 19 °F
Humidity 20%
Rainfall 0.00 in
Snow Depth Not available.
UV Not available.
Pollen Not available.
Air Quality Not available.
Flu Activity Not available.
METAR FBKE 290500Z 19011KT CAVOK 16/M07 Q1019

More Conditions Fewer Conditions

10-Day Weather Forecast

Almanac

Astronomy

Aug. 29, 2014 Rise Set
Actual Time 6:29 AM CAT 6:11 PM CAT
Civil Twilight 6:07 AM CAT 6:33 PM CAT
Nautical Twilight 5:41 AM CAT 6:59 PM CAT
Astronomical Twilight 5:16 AM CAT 7:24 PM CAT
Moon 8:42 AM CAT 9:24 PM CAT
Length of Visible Light 12h 26m
Length of Day
11h 42m
Tomorrow will be 0m 56s longer.
Waxing Crescent, 12% of the Moon is Illuminated
Today
Waxing Crescent
Sep 2
First Quarter
Sep 8
Full
Sep 15
Last Quarter
Sep 24
New

Yesterday's Extremes

Country Highs Country Lows

Community

WunderPhotos

Upload Photos

1,748,192 photos uploaded!

Nearby

Snow Depth

Not available.

Earthquake Activity

City Distance Mag. Time & Date
No recent earthquake activity has been reported nearby.
Minimum magnitude displayed is 2.5.

Coastal Water Temperatures

Place Temperature
No Stations Reporting

Nearby Weather Stations